Arlington, OH

10:07 PM EDT on July 23, 2014 (GMT -0400)
KOHARLIN2 Elev 850 ft | 40.87 °N, 83.66 °W | Change Station

Current weather conditions updated 8 seconds ago

Partly Cloudy
Partly Cloudy
62.3 °F
Feels Like 62.3 °F
N
1.0
Wind Variable Wind from East
Gusts 6.0 mph

Tomorrow is forecast to be Cooler than today.

Today
High -- | Low -- °F
--% Chance of Precip.
Yesterday
High -- | Low -- °F
Precip. -- in
6:22 AM 8:59 PM
Waning Crescent, 7% visible
Pressure 30.03 in
Visibility 10.0 miles
Clouds Clear
Dew Point 59 °F
Humidity 88%
Rainfall 0.56 in
Snow Depth Not available.
UV 0 out of 12
Pollen 6.10 out of 12
Air Quality Not available.
Flu Activity Not available.
METAR KFDY 240153Z AUTO 08008KT 10SM CLR 18/15 A3005 RMK AO2 SLP169 T01830150

More Conditions Fewer Conditions

Pressure 30.03 in
Visibility 10.0 miles
Clouds Clear
Dew Point 59 °F
Humidity 88%
Rainfall 0.56 in
Snow Depth Not available.
UV 0 out of 12
Pollen 6.10 out of 12
Air Quality Not available.
Flu Activity Not available.
METAR KFDY 240153Z AUTO 08008KT 10SM CLR 18/15 A3005 RMK AO2 SLP169 T01830150

More Conditions Fewer Conditions

10-Day Weather Forecast

Almanac

Astronomy

Jul. 23, 2014 Rise Set
Actual Time 6:22 AM EDT 8:59 PM EDT
Civil Twilight 5:50 AM EDT 9:30 PM EDT
Nautical Twilight 5:10 AM EDT 10:10 PM EDT
Astronomical Twilight 4:26 AM EDT 10:54 PM EDT
Moon 3:40 AM EDT (7/23) 6:26 PM EDT (7/23)
Length of Visible Light 15h 40m
Length of Day
14h 36m
Tomorrow will be 1m 45s shorter.
Waning Crescent, 7% of the Moon is Illuminated
Today
Waning Crescent
Jul 26
New
Aug 3
First Quarter
Aug 10
Full
Aug 17
Last Quarter

Today's Extremes

State Highs State Lows

Community

WunderPhotos

Upload Photos

1,736,843 photos uploaded!

Nearby

Snow Depth

Station Depth Elevation
No new snow has been reported.

Earthquake Activity

City Distance Mag. Time & Date
No recent earthquake activity has been reported nearby.
Minimum magnitude displayed is 2.5.

Coastal Water Temperatures

Place Temperature
No Stations Reporting

Nearby Weather Stations

Station Location Temp. Dew Point Humidity Wind Precip. Elev Updated Type
ARLINGTON, OH 62.3 °F 59 °F 88% East  at  1.0 mph 0.00 in / hr 850 ft 10:07 PM EDT Rapid Fire
Winterwood, Findlay, OH 62.4 °F 62 °F 99% NE  at  0.0 mph 0.00 in / hr 794 ft 10:07 PM EDT Rapid Fire
Findlay, Findlay, OH 63.1 °F 60 °F 90% East  at  0.0 mph 0.00 in / hr 814 ft 10:03 PM EDT Normal
Ada, Ada, OH 63.1 °F 60 °F 90% NNW  at  0.0 mph 0.00 in / hr 912 ft 10:07 PM EDT Rapid Fire
Arcadia Ohio Williesweather, ARCADIA, OH 60.2 °F 58 °F 92% NE  at  0.0 mph 0.00 in / hr 820 ft 10:07 PM EDT Rapid Fire

Show More Stations Show Fewer Stations